sensor_id;sensor_type;location;lat;lon;timestamp;temperature;humidity
34558;DHT22;24708;48.888;8.736;2022-10-03T05:33:39;9.30;99.90
34558;DHT22;24708;48.888;8.736;2022-10-03T05:36:19;9.20;99.90
34558;DHT22;24708;48.888;8.736;2022-10-03T05:45:21;9.20;99.90
34558;DHT22;24708;48.888;8.736;2022-10-03T05:48:08;9.50;99.90
34558;DHT22;24708;48.888;8.736;2022-10-03T06:00:00;10.00;99.90
34558;DHT22;24708;48.888;8.736;2022-10-03T06:05:51;10.80;99.90
34558;DHT22;24708;48.888;8.736;2022-10-03T06:11:33;10.00;99.90
34558;DHT22;24708;48.888;8.736;2022-10-03T06:14:31;10.10;99.90
34558;DHT22;24708;48.888;8.736;2022-10-03T06:17:15;10.40;99.90
34558;DHT22;24708;48.888;8.736;2022-10-03T06:23:02;10.00;99.90
34558;DHT22;24708;48.888;8.736;2022-10-03T06:25:54;10.50;99.90
34558;DHT22;24708;48.888;8.736;2022-10-03T06:35:04;10.50;99.90
34558;DHT22;24708;48.888;8.736;2022-10-03T06:47:19;10.70;99.90
34558;DHT22;24708;48.888;8.736;2022-10-03T06:53:07;10.70;99.90
34558;DHT22;24708;48.888;8.736;2022-10-03T06:56:03;10.70;99.90
34558;DHT22;24708;48.888;8.736;2022-10-03T06:59:20;10.70;99.90
34558;DHT22;24708;48.888;8.736;2022-10-03T07:11:32;10.90;99.90
34558;DHT22;24708;48.888;8.736;2022-10-03T07:17:23;10.70;99.90
34558;DHT22;24708;48.888;8.736;2022-10-03T07:20:34;10.80;99.90
34558;DHT22;24708;48.888;8.736;2022-10-03T07:23:30;11.00;99.90
34558;DHT22;24708;48.888;8.736;2022-10-03T07:35:38;11.00;99.90
34558;DHT22;24708;48.888;8.736;2022-10-03T07:38:50;10.70;99.90
34558;DHT22;24708;48.888;8.736;2022-10-03T07:50:45;11.50;99.90
34558;DHT22;24708;48.888;8.736;2022-10-03T07:53:34;11.50;99.90
34558;DHT22;24708;48.888;8.736;2022-10-03T07:59:36;11.70;99.90
34558;DHT22;24708;48.888;8.736;2022-10-03T08:03:07;11.80;99.90
34558;DHT22;24708;48.888;8.736;2022-10-03T08:05:47;11.70;99.90
34558;DHT22;24708;48.888;8.736;2022-10-03T08:08:38;12.30;99.90
34558;DHT22;24708;48.888;8.736;2022-10-03T08:11:40;13.00;99.90
34558;DHT22;24708;48.888;8.736;2022-10-03T08:14:18;13.30;99.90
34558;DHT22;24708;48.888;8.736;2022-10-03T08:17:19;12.90;99.90
34558;DHT22;24708;48.888;8.736;2022-10-03T08:20:13;12.50;99.90
34558;DHT22;24708;48.888;8.736;2022-10-03T08:23:02;12.40;99.90
34558;DHT22;24708;48.888;8.736;2022-10-03T08:28:56;12.50;99.90
34558;DHT22;24708;48.888;8.736;2022-10-03T08:31:42;12.70;99.90
34558;DHT22;24708;48.888;8.736;2022-10-03T08:34:40;12.90;99.90
34558;DHT22;24708;48.888;8.736;2022-10-03T08:37:28;13.00;99.90
34558;DHT22;24708;48.888;8.736;2022-10-03T08:40:29;13.00;99.90
34558;DHT22;24708;48.888;8.736;2022-10-03T08:44:02;13.10;99.90
34558;DHT22;24708;48.888;8.736;2022-10-03T08:53:04;13.00;99.90
34558;DHT22;24708;48.888;8.736;2022-10-03T08:56:02;12.90;99.90
34558;DHT22;24708;48.888;8.736;2022-10-03T08:58:58;12.90;99.90
34558;DHT22;24708;48.888;8.736;2022-10-03T09:01:39;12.80;99.90
34558;DHT22;24708;48.888;8.736;2022-10-03T09:07:38;12.80;99.90
34558;DHT22;24708;48.888;8.736;2022-10-03T09:16:49;13.00;99.90
34558;DHT22;24708;48.888;8.736;2022-10-03T09:19:44;13.20;99.90
34558;DHT22;24708;48.888;8.736;2022-10-03T09:33:44;14.20;99.90
34558;DHT22;24708;48.888;8.736;2022-10-03T09:36:43;14.80;99.90
34558;DHT22;24708;48.888;8.736;2022-10-03T09:39:43;15.30;99.90
34558;DHT22;24708;48.888;8.736;2022-10-03T09:45:50;16.70;99.90
34558;DHT22;24708;48.888;8.736;2022-10-03T09:48:43;18.20;99.90
34558;DHT22;24708;48.888;8.736;2022-10-03T09:51:24;18.60;99.90
34558;DHT22;24708;48.888;8.736;2022-10-03T09:54:21;19.80;99.90
34558;DHT22;24708;48.888;8.736;2022-10-03T10:02:56;20.20;99.90
34558;DHT22;24708;48.888;8.736;2022-10-03T10:08:53;19.80;99.90
34558;DHT22;24708;48.888;8.736;2022-10-03T10:18:13;20.00;99.90
34558;DHT22;24708;48.888;8.736;2022-10-03T10:27:22;19.70;99.90
34558;DHT22;24708;48.888;8.736;2022-10-03T10:33:21;18.40;99.90
34558;DHT22;24708;48.888;8.736;2022-10-03T10:42:45;16.10;99.90
34558;DHT22;24708;48.888;8.736;2022-10-03T10:45:37;15.80;99.90
34558;DHT22;24708;48.888;8.736;2022-10-03T10:54:50;15.00;99.90
34558;DHT22;24708;48.888;8.736;2022-10-03T11:16:31;19.00;99.90
34558;DHT22;24708;48.888;8.736;2022-10-03T11:19:34;19.00;99.90
34558;DHT22;24708;48.888;8.736;2022-10-03T11:37:31;16.50;99.90
34558;DHT22;24708;48.888;8.736;2022-10-03T11:40:12;16.50;99.90
34558;DHT22;24708;48.888;8.736;2022-10-03T11:42:55;16.80;99.90
34558;DHT22;24708;48.888;8.736;2022-10-03T11:45:33;16.80;99.90
34558;DHT22;24708;48.888;8.736;2022-10-03T11:48:32;16.60;99.90
34558;DHT22;24708;48.888;8.736;2022-10-03T11:51:08;16.60;99.90
34558;DHT22;24708;48.888;8.736;2022-10-03T11:53:46;16.40;99.90
34558;DHT22;24708;48.888;8.736;2022-10-03T11:56:38;16.00;99.90
34558;DHT22;24708;48.888;8.736;2022-10-03T12:02:06;15.90;99.90
34558;DHT22;24708;48.888;8.736;2022-10-03T12:04:57;16.00;99.90
34558;DHT22;24708;48.888;8.736;2022-10-03T12:11:36;16.40;99.90
34558;DHT22;24708;48.888;8.736;2022-10-03T12:17:14;17.00;99.90
34558;DHT22;24708;48.888;8.736;2022-10-03T12:22:44;17.40;99.90
34558;DHT22;24708;48.888;8.736;2022-10-03T12:25:23;17.30;99.90
34558;DHT22;24708;48.888;8.736;2022-10-03T12:28:23;17.10;99.90
34558;DHT22;24708;48.888;8.736;2022-10-03T12:31:11;16.80;99.90
34558;DHT22;24708;48.888;8.736;2022-10-03T12:36:55;16.30;99.90
34558;DHT22;24708;48.888;8.736;2022-10-03T12:39:37;16.30;99.90
34558;DHT22;24708;48.888;8.736;2022-10-03T12:42:28;16.20;99.90
34558;DHT22;24708;48.888;8.736;2022-10-03T12:45:33;16.20;99.90
34558;DHT22;24708;48.888;8.736;2022-10-03T12:47:58;16.50;99.90
34558;DHT22;24708;48.888;8.736;2022-10-03T12:50:40;16.80;99.90
34558;DHT22;24708;48.888;8.736;2022-10-03T12:53:21;16.90;99.90
34558;DHT22;24708;48.888;8.736;2022-10-03T12:59:27;16.70;99.90
34558;DHT22;24708;48.888;8.736;2022-10-03T13:02:14;16.70;99.90
34558;DHT22;24708;48.888;8.736;2022-10-03T13:05:13;16.30;99.90
34558;DHT22;24708;48.888;8.736;2022-10-03T13:07:54;16.10;99.90
34558;DHT22;24708;48.888;8.736;2022-10-03T13:10:46;16.00;99.90
34558;DHT22;24708;48.888;8.736;2022-10-03T13:14:10;15.70;99.90
34558;DHT22;24708;48.888;8.736;2022-10-03T13:16:28;15.60;99.90
34558;DHT22;24708;48.888;8.736;2022-10-03T13:19:17;15.60;99.90
34558;DHT22;24708;48.888;8.736;2022-10-03T13:21:56;15.60;99.90
34558;DHT22;24708;48.888;8.736;2022-10-03T13:24:51;15.60;99.90
34558;DHT22;24708;48.888;8.736;2022-10-03T13:27:40;15.70;99.90
34558;DHT22;24708;48.888;8.736;2022-10-03T13:30:29;15.90;99.90
34558;DHT22;24708;48.888;8.736;2022-10-03T13:33:02;16.10;99.90
34558;DHT22;24708;48.888;8.736;2022-10-03T13:41:41;16.00;99.90
34558;DHT22;24708;48.888;8.736;2022-10-03T13:44:15;16.10;99.90
34558;DHT22;24708;48.888;8.736;2022-10-03T13:47:00;16.30;99.90
34558;DHT22;24708;48.888;8.736;2022-10-03T13:49:33;16.30;99.90
34558;DHT22;24708;48.888;8.736;2022-10-03T13:52:27;16.60;99.90
34558;DHT22;24708;48.888;8.736;2022-10-03T13:57:42;16.90;99.90
34558;DHT22;24708;48.888;8.736;2022-10-03T14:00:18;16.10;99.90
34558;DHT22;24708;48.888;8.736;2022-10-03T14:06:03;16.90;99.90
34558;DHT22;24708;48.888;8.736;2022-10-03T14:08:52;17.20;99.90
34558;DHT22;24708;48.888;8.736;2022-10-03T14:25:39;16.80;99.90
34558;DHT22;24708;48.888;8.736;2022-10-03T14:28:19;16.50;99.90
34558;DHT22;24708;48.888;8.736;2022-10-03T14:31:09;16.60;99.90
34558;DHT22;24708;48.888;8.736;2022-10-03T14:34:38;16.50;99.90
34558;DHT22;24708;48.888;8.736;2022-10-03T14:36:54;16.40;99.90
34558;DHT22;24708;48.888;8.736;2022-10-03T14:39:46;16.20;99.90
34558;DHT22;24708;48.888;8.736;2022-10-03T14:42:39;16.20;99.90
34558;DHT22;24708;48.888;8.736;2022-10-03T14:45:17;16.00;99.90
34558;DHT22;24708;48.888;8.736;2022-10-03T14:47:49;16.10;99.90
34558;DHT22;24708;48.888;8.736;2022-10-03T14:50:18;16.00;99.90
34558;DHT22;24708;48.888;8.736;2022-10-03T14:52:56;16.10;99.90
34558;DHT22;24708;48.888;8.736;2022-10-03T14:55:32;16.20;99.90
34558;DHT22;24708;48.888;8.736;2022-10-03T14:58:04;15.90;99.90
34558;DHT22;24708;48.888;8.736;2022-10-03T15:00:44;15.80;99.90
34558;DHT22;24708;48.888;8.736;2022-10-03T15:09:09;15.50;99.90
34558;DHT22;24708;48.888;8.736;2022-10-03T15:11:46;15.50;99.90
34558;DHT22;24708;48.888;8.736;2022-10-03T15:14:14;15.50;99.90
34558;DHT22;24708;48.888;8.736;2022-10-03T15:16:50;15.50;99.90
34558;DHT22;24708;48.888;8.736;2022-10-03T15:19:32;15.50;99.90
34558;DHT22;24708;48.888;8.736;2022-10-03T15:22:57;15.50;99.90
34558;DHT22;24708;48.888;8.736;2022-10-03T15:24:53;15.30;99.90
34558;DHT22;24708;48.888;8.736;2022-10-03T15:27:22;15.10;99.90
34558;DHT22;24708;48.888;8.736;2022-10-03T15:29:53;15.00;99.90
34558;DHT22;24708;48.888;8.736;2022-10-03T15:32:26;15.00;99.90
34558;DHT22;24708;48.888;8.736;2022-10-03T15:34:59;15.00;99.90
34558;DHT22;24708;48.888;8.736;2022-10-03T15:37:32;14.90;99.90
34558;DHT22;24708;48.888;8.736;2022-10-03T15:40:06;14.70;99.90
34558;DHT22;24708;48.888;8.736;2022-10-03T15:42:49;14.80;99.90
34558;DHT22;24708;48.888;8.736;2022-10-03T15:45:23;14.70;99.90
34558;DHT22;24708;48.888;8.736;2022-10-03T15:47:59;14.70;99.90
34558;DHT22;24708;48.888;8.736;2022-10-03T15:50:29;14.70;99.90
34558;DHT22;24708;48.888;8.736;2022-10-03T15:53:00;14.70;99.90
34558;DHT22;24708;48.888;8.736;2022-10-03T15:55:54;14.60;99.90
34558;DHT22;24708;48.888;8.736;2022-10-03T15:58:28;14.60;99.90
